sensor_id;sensor_type;location;lat;lon;timestamp;pressure;altitude;pressure_sealevel;temperature;humidity
85870;BME280;76385;52.392;16.922;2024-03-02T00:10:09;100374.0;;;9.66;92.27
85870;BME280;76385;52.392;16.922;2024-03-02T00:25:09;100350.0;;;9.62;92.42
85870;BME280;76385;52.392;16.922;2024-03-02T00:40:09;100364.0;;;9.55;92.97
85870;BME280;76385;52.392;16.922;2024-03-02T00:55:09;100363.0;;;9.5;93.17
85870;BME280;76385;52.392;16.922;2024-03-02T01:10:09;100351.0;;;9.48;93.05
85870;BME280;76385;52.392;16.922;2024-03-02T01:25:10;100342.0;;;9.42;92.91
85870;BME280;76385;52.392;16.922;2024-03-02T01:45:09;100330.0;;;9.36;92.55
85870;BME280;76385;52.392;16.922;2024-03-02T02:00:09;100327.0;;;9.3;92.37
85870;BME280;76385;52.392;16.922;2024-03-02T02:15:09;100319.0;;;9.18;92.19
85870;BME280;76385;52.392;16.922;2024-03-02T02:30:09;100331.0;;;9.06;92.06
85870;BME280;76385;52.392;16.922;2024-03-02T02:45:09;100327.0;;;8.96;92.09
85870;BME280;76385;52.392;16.922;2024-03-02T03:00:09;100320.0;;;8.87;91.88
85870;BME280;76385;52.392;16.922;2024-03-02T03:15:09;100320.0;;;8.83;91.68
85870;BME280;76385;52.392;16.922;2024-03-02T03:35:10;100309.0;;;8.81;91.47
85870;BME280;76385;52.392;16.922;2024-03-02T03:50:10;100307.0;;;8.79;91.08
85870;BME280;76385;52.392;16.922;2024-03-02T04:05:10;100301.0;;;8.74;91.03
85870;BME280;76385;52.392;16.922;2024-03-02T04:20:10;100306.0;;;8.74;91.02
85870;BME280;76385;52.392;16.922;2024-03-02T04:35:09;100322.0;;;8.74;90.79
85870;BME280;76385;52.392;16.922;2024-03-02T04:50:09;100326.0;;;8.68;90.82
85870;BME280;76385;52.392;16.922;2024-03-02T05:05:09;100337.0;;;8.69;90.67
85870;BME280;76385;52.392;16.922;2024-03-02T05:20:09;100349.0;;;8.68;90.65
85870;BME280;76385;52.392;16.922;2024-03-02T05:35:09;100359.0;;;8.59;90.7
85870;BME280;76385;52.392;16.922;2024-03-02T05:50:09;100356.0;;;8.48;90.72
85870;BME280;76385;52.392;16.922;2024-03-02T06:05:09;100369.0;;;8.35;91.0
85870;BME280;76385;52.392;16.922;2024-03-02T06:20:09;100383.0;;;8.36;90.92
85870;BME280;76385;52.392;16.922;2024-03-02T06:35:09;100399.0;;;8.45;90.68
85870;BME280;76385;52.392;16.922;2024-03-02T06:55:09;100390.0;;;8.5;90.35
85870;BME280;76385;52.392;16.922;2024-03-02T07:10:09;100399.0;;;8.54;90.13
85870;BME280;76385;52.392;16.922;2024-03-02T07:25:09;100411.0;;;8.85;89.02
85870;BME280;76385;52.392;16.922;2024-03-02T07:40:10;100422.0;;;9.1;88.21
85870;BME280;76385;52.392;16.922;2024-03-02T07:55:10;100432.0;;;9.27;88.05
85870;BME280;76385;52.392;16.922;2024-03-02T08:10:10;100434.0;;;9.91;86.25
85870;BME280;76385;52.392;16.922;2024-03-02T08:25:09;100442.0;;;10.33;84.3
85870;BME280;76385;52.392;16.922;2024-03-02T08:40:09;100440.0;;;10.61;83.61
85870;BME280;76385;52.392;16.922;2024-03-02T08:55:09;100434.0;;;11.03;81.68
85870;BME280;76385;52.392;16.922;2024-03-02T09:10:09;100430.0;;;11.9;79.08
85870;BME280;76385;52.392;16.922;2024-03-02T09:25:09;100437.0;;;12.39;76.67
85870;BME280;76385;52.392;16.922;2024-03-02T09:40:09;100432.0;;;12.74;75.41
85870;BME280;76385;52.392;16.922;2024-03-02T09:55:09;100438.0;;;12.99;74.88
85870;BME280;76385;52.392;16.922;2024-03-02T10:10:09;100446.0;;;13.23;73.87
85870;BME280;76385;52.392;16.922;2024-03-02T10:25:09;100437.0;;;13.02;74.47
85870;BME280;76385;52.392;16.922;2024-03-02T10:40:09;100427.0;;;13.91;72.81
85870;BME280;76385;52.392;16.922;2024-03-02T10:55:09;100417.0;;;14.34;70.25
85870;BME280;76385;52.392;16.922;2024-03-02T11:10:09;100411.0;;;14.98;68.6
85870;BME280;76385;52.392;16.922;2024-03-02T11:25:09;100415.0;;;14.55;68.8
85870;BME280;76385;52.392;16.922;2024-03-02T11:40:09;100393.0;;;14.06;70.91
85870;BME280;76385;52.392;16.922;2024-03-02T11:55:09;100392.0;;;13.84;72.28
85870;BME280;76385;52.392;16.922;2024-03-02T12:10:09;100403.0;;;13.88;71.79
85870;BME280;76385;52.392;16.922;2024-03-02T12:25:09;100392.0;;;14.0;71.94
85870;BME280;76385;52.392;16.922;2024-03-02T12:40:09;100399.0;;;14.19;71.0
85870;BME280;76385;52.392;16.922;2024-03-02T12:55:09;100390.0;;;14.3;70.39
85870;BME280;76385;52.392;16.922;2024-03-02T13:10:09;100384.0;;;14.27;70.45
85870;BME280;76385;52.392;16.922;2024-03-02T13:25:09;100382.0;;;14.33;69.94
85870;BME280;76385;52.392;16.922;2024-03-02T13:40:09;100382.0;;;14.38;69.91
85870;BME280;76385;52.392;16.922;2024-03-02T13:55:09;100394.0;;;14.39;68.17
85870;BME280;76385;52.392;16.922;2024-03-02T14:10:10;100382.0;;;14.47;67.96
85870;BME280;76385;52.392;16.922;2024-03-02T14:25:10;100381.0;;;14.32;68.65
85870;BME280;76385;52.392;16.922;2024-03-02T14:40:10;100386.0;;;14.19;68.08
85870;BME280;76385;52.392;16.922;2024-03-02T14:55:09;100379.0;;;14.12;68.33
85870;BME280;76385;52.392;16.922;2024-03-02T15:10:10;100381.0;;;13.96;69.87
85870;BME280;76385;52.392;16.922;2024-03-02T15:25:10;100378.0;;;13.81;72.03
85870;BME280;76385;52.392;16.922;2024-03-02T15:40:09;100371.0;;;13.54;74.8
85870;BME280;76385;52.392;16.922;2024-03-02T15:55:09;100382.0;;;13.14;77.27
85870;BME280;76385;52.392;16.922;2024-03-02T16:10:09;100380.0;;;12.85;78.12
85870;BME280;76385;52.392;16.922;2024-03-02T16:25:09;100381.0;;;12.63;78.79
85870;BME280;76385;52.392;16.922;2024-03-02T16:40:09;100380.0;;;12.54;79.03
85870;BME280;76385;52.392;16.922;2024-03-02T16:55:09;100390.0;;;12.41;79.6
85870;BME280;76385;52.392;16.922;2024-03-02T17:10:09;100401.0;;;12.29;80.43
85870;BME280;76385;52.392;16.922;2024-03-02T17:30:09;100392.0;;;12.13;81.14
85870;BME280;76385;52.392;16.922;2024-03-02T17:45:09;100395.0;;;11.91;81.83
85870;BME280;76385;52.392;16.922;2024-03-02T18:00:09;100404.0;;;11.66;82.22
85870;BME280;76385;52.392;16.922;2024-03-02T18:15:09;100416.0;;;11.47;82.7
85870;BME280;76385;52.392;16.922;2024-03-02T18:30:10;100428.0;;;11.11;83.73
85870;BME280;76385;52.392;16.922;2024-03-02T18:45:10;100422.0;;;10.92;84.3
85870;BME280;76385;52.392;16.922;2024-03-02T19:05:09;100440.0;;;10.64;84.96
85870;BME280;76385;52.392;16.922;2024-03-02T19:20:09;100443.0;;;10.42;85.49
85870;BME280;76385;52.392;16.922;2024-03-02T19:35:09;100427.0;;;10.21;85.97
85870;BME280;76385;52.392;16.922;2024-03-02T19:50:09;100433.0;;;10.14;85.98
85870;BME280;76385;52.392;16.922;2024-03-02T20:10:10;100438.0;;;10.01;86.33
85870;BME280;76385;52.392;16.922;2024-03-02T20:25:10;100427.0;;;10.06;86.31
85870;BME280;76385;52.392;16.922;2024-03-02T20:40:09;100443.0;;;10.04;86.51
85870;BME280;76385;52.392;16.922;2024-03-02T20:55:10;100437.0;;;10.01;86.29
85870;BME280;76385;52.392;16.922;2024-03-02T21:15:09;100444.0;;;10.01;86.28
85870;BME280;76385;52.392;16.922;2024-03-02T21:30:09;100448.0;;;9.98;86.26
85870;BME280;76385;52.392;16.922;2024-03-02T21:45:09;100455.0;;;9.96;86.31
85870;BME280;76385;52.392;16.922;2024-03-02T22:00:09;100456.0;;;9.86;87.64
85870;BME280;76385;52.392;16.922;2024-03-02T22:15:09;100458.0;;;9.72;88.58
85870;BME280;76385;52.392;16.922;2024-03-02T22:30:09;100453.0;;;9.66;87.83
85870;BME280;76385;52.392;16.922;2024-03-02T22:45:09;100456.0;;;9.64;87.94
85870;BME280;76385;52.392;16.922;2024-03-02T23:00:09;100450.0;;;9.53;88.58
85870;BME280;76385;52.392;16.922;2024-03-02T23:15:09;100445.0;;;9.47;88.7
85870;BME280;76385;52.392;16.922;2024-03-02T23:30:09;100439.0;;;9.41;88.74
85870;BME280;76385;52.392;16.922;2024-03-02T23:45:09;100428.0;;;9.41;88.23
